createdAt,value
2018-12-04T00:02:10.986Z,-1.55
2018-12-04T00:04:38.758Z,-1.42
2018-12-04T00:07:06.308Z,-1.60
2018-12-04T00:09:33.900Z,-1.46
2018-12-04T00:12:01.468Z,-1.45
2018-12-04T00:14:29.025Z,-1.48
2018-12-04T00:16:56.619Z,-1.54
2018-12-04T00:19:24.154Z,-1.58
2018-12-04T00:21:51.718Z,-1.59
2018-12-04T00:24:19.297Z,-1.61
2018-12-04T00:26:47.128Z,-1.61
2018-12-04T00:29:14.837Z,-1.73
2018-12-04T00:31:42.404Z,-1.63
2018-12-04T00:34:09.956Z,-1.64
2018-12-04T00:36:37.516Z,-1.70
2018-12-04T00:39:06.673Z,-1.67
2018-12-04T00:41:34.209Z,-1.58
2018-12-04T00:44:01.766Z,-1.60
2018-12-04T00:46:29.309Z,-1.59
2018-12-04T00:48:56.888Z,-1.53
2018-12-04T00:51:24.672Z,-1.59
2018-12-04T00:53:52.214Z,-1.63
2018-12-04T00:56:19.751Z,-1.73
2018-12-04T00:58:47.273Z,-1.82
2018-12-04T01:01:14.871Z,-1.91
2018-12-04T01:03:42.537Z,-1.91
2018-12-04T01:06:10.065Z,-1.92
2018-12-04T01:08:37.593Z,-1.94
2018-12-04T01:11:05.169Z,-1.94
2018-12-04T01:13:33.543Z,-1.88
2018-12-04T01:16:01.422Z,-1.83
2018-12-04T01:18:29.017Z,-1.86
2018-12-04T01:20:56.552Z,-1.77
2018-12-04T01:23:24.081Z,-1.69
2018-12-04T01:25:51.620Z,-1.68
2018-12-04T01:28:19.196Z,-1.62
2018-12-04T01:30:47.680Z,-1.64
2018-12-04T01:33:16.329Z,-1.64
2018-12-04T01:35:43.865Z,-1.64
2018-12-04T01:38:11.396Z,-1.65
2018-12-04T01:40:38.937Z,-1.64
2018-12-04T01:43:06.472Z,-1.70
2018-12-04T01:45:34.405Z,-1.58
2018-12-04T01:48:01.937Z,-1.55
2018-12-04T01:50:29.489Z,-1.55
2018-12-04T01:52:57.020Z,-1.58
2018-12-04T01:55:24.552Z,-1.52
2018-12-04T01:57:52.102Z,-1.53
2018-12-04T02:00:19.794Z,-1.54
2018-12-04T02:02:47.332Z,-1.62
2018-12-04T02:05:14.888Z,-1.56
2018-12-04T02:07:42.457Z,-1.56
2018-12-04T02:10:10.020Z,-1.45
2018-12-04T02:12:37.570Z,-1.40
2018-12-04T02:15:06.317Z,-1.42
2018-12-04T02:17:33.848Z,-1.43
2018-12-04T02:20:01.404Z,-1.47
2018-12-04T02:22:28.933Z,-1.51
2018-12-04T02:24:56.469Z,-1.55
2018-12-04T02:27:24.117Z,-1.62
2018-12-04T02:29:51.653Z,-1.66
2018-12-04T02:32:19.232Z,-1.76
2018-12-04T02:34:46.770Z,-1.78
2018-12-04T02:37:14.309Z,-1.73
2018-12-04T02:39:41.842Z,-1.67
2018-12-04T02:42:09.371Z,-1.68
2018-12-04T02:44:36.942Z,-1.69
2018-12-04T02:47:04.495Z,-1.62
2018-12-04T02:49:32.039Z,-1.68
2018-12-04T02:51:59.569Z,-1.56
2018-12-04T02:54:27.096Z,-1.60
2018-12-04T02:56:54.921Z,-1.63
2018-12-04T02:59:22.455Z,-1.67
2018-12-04T03:01:49.990Z,-1.68
2018-12-04T03:04:17.513Z,-1.67
2018-12-04T03:06:45.050Z,-1.60
2018-12-04T03:09:12.920Z,-1.58
2018-12-04T03:11:40.453Z,-1.60
2018-12-04T03:14:07.983Z,-1.62
2018-12-04T03:16:35.520Z,-1.60
2018-12-04T03:19:03.060Z,-1.61
2018-12-04T03:21:30.921Z,-1.63
2018-12-04T03:23:58.497Z,-1.68
2018-12-04T03:26:26.133Z,-1.73
2018-12-04T03:28:53.683Z,-1.62
2018-12-04T03:31:21.209Z,-1.58
2018-12-04T03:33:48.944Z,-1.62
2018-12-04T03:36:16.601Z,-1.57
2018-12-04T03:38:44.149Z,-1.54
2018-12-04T03:41:11.695Z,-1.53
2018-12-04T03:43:39.233Z,-1.51
2018-12-04T03:46:06.804Z,-1.49
2018-12-04T03:48:35.003Z,-1.45
2018-12-04T03:51:02.559Z,-1.43
2018-12-04T03:53:30.089Z,-1.39
2018-12-04T03:55:57.629Z,-1.33
2018-12-04T03:58:25.183Z,-1.32
2018-12-04T04:00:52.741Z,-1.32
2018-12-04T04:03:20.464Z,-1.36
2018-12-04T04:05:48.029Z,-1.41
2018-12-04T04:08:15.576Z,-1.42
2018-12-04T04:10:43.113Z,-1.46
2018-12-04T04:13:10.662Z,-1.44
2018-12-04T04:15:38.613Z,-1.40
2018-12-04T04:18:06.154Z,-1.40
2018-12-04T04:20:34.048Z,-1.39
2018-12-04T04:23:01.594Z,-1.40
2018-12-04T04:25:29.129Z,-1.42
2018-12-04T04:27:56.704Z,-1.43
2018-12-04T04:30:24.261Z,-1.41
2018-12-04T04:32:51.812Z,-1.48
2018-12-04T04:35:19.344Z,-1.56
2018-12-04T04:37:46.923Z,-1.55
2018-12-04T04:40:14.457Z,-1.55
2018-12-04T04:42:42.051Z,-1.53
2018-12-04T04:45:09.617Z,-1.59
2018-12-04T04:47:37.161Z,-1.63
2018-12-04T04:50:05.173Z,-1.56
2018-12-04T04:52:32.703Z,-1.50
2018-12-04T04:55:00.242Z,-1.45
2018-12-04T04:57:27.777Z,-1.41
2018-12-04T04:59:55.334Z,-1.40
2018-12-04T05:02:22.894Z,-1.45
2018-12-04T05:04:50.434Z,-1.46
2018-12-04T05:07:18.005Z,-1.38
2018-12-04T05:09:45.636Z,-1.35
2018-12-04T05:12:13.636Z,-1.32
2018-12-04T05:14:42.113Z,-1.38
2018-12-04T05:17:09.644Z,-1.40
2018-12-04T05:19:37.202Z,-1.35
2018-12-04T05:22:04.733Z,-1.38
2018-12-04T05:24:32.572Z,-1.36
2018-12-04T05:27:00.113Z,-1.38
2018-12-04T05:29:27.647Z,-1.37
2018-12-04T05:31:55.168Z,-1.39
2018-12-04T05:34:22.759Z,-1.37
2018-12-04T05:36:50.317Z,-1.36
2018-12-04T05:39:17.839Z,-1.36
2018-12-04T05:41:45.361Z,-1.30
2018-12-04T05:44:13.008Z,-1.20
2018-12-04T05:46:40.544Z,-1.23
2018-12-04T05:49:08.076Z,-1.15
2018-12-04T05:51:37.624Z,-1.21
2018-12-04T05:54:05.451Z,-1.12
2018-12-04T05:56:33.071Z,-1.22
2018-12-04T05:59:00.640Z,-1.35
2018-12-04T06:01:28.173Z,-1.23
2018-12-04T06:03:55.729Z,-1.20
2018-12-04T06:06:23.330Z,-1.16
2018-12-04T06:08:50.978Z,-1.15
2018-12-04T06:11:18.536Z,-1.12
2018-12-04T06:13:46.056Z,-1.03
2018-12-04T06:16:13.654Z,-0.97
2018-12-04T06:18:41.200Z,-0.94
2018-12-04T06:21:08.789Z,-0.91
2018-12-04T06:23:36.679Z,-1.01
2018-12-04T06:26:04.244Z,-0.94
2018-12-04T06:28:31.781Z,-0.91
2018-12-04T06:30:59.330Z,-0.95
2018-12-04T06:33:28.538Z,-0.92
2018-12-04T06:35:56.068Z,-0.78
2018-12-04T06:38:23.605Z,-0.68
2018-12-04T06:40:51.415Z,-0.64
2018-12-04T06:43:18.983Z,-0.64
2018-12-04T06:45:46.525Z,-0.66
2018-12-04T06:48:14.044Z,-0.55
2018-12-04T06:50:41.568Z,-0.58
2018-12-04T06:53:09.092Z,-0.47
2018-12-04T06:55:36.621Z,-0.40
2018-12-04T06:58:04.337Z,-0.39
2018-12-04T07:00:31.916Z,-0.35
2018-12-04T07:02:59.474Z,-0.44
2018-12-04T07:05:27.000Z,-0.29
2018-12-04T07:07:54.540Z,-0.28
2018-12-04T07:10:22.339Z,-0.26
2018-12-04T07:12:49.931Z,-0.18
2018-12-04T07:15:17.865Z,-0.30
2018-12-04T07:17:45.425Z,-0.22
2018-12-04T07:20:12.962Z,-0.10
2018-12-04T07:22:40.485Z,-0.05
2018-12-04T07:25:08.023Z,0.04
2018-12-04T07:27:35.558Z,0.02
2018-12-04T07:30:04.349Z,0.22
2018-12-04T07:32:32.224Z,0.31
2018-12-04T07:34:59.744Z,0.37
2018-12-04T07:37:27.272Z,0.39
2018-12-04T07:39:54.827Z,0.37
2018-12-04T07:42:22.379Z,0.46
2018-12-04T07:44:50.930Z,0.49
2018-12-04T07:47:18.461Z,0.59
2018-12-04T07:49:46.405Z,0.66
2018-12-04T07:52:13.929Z,0.72
2018-12-04T07:54:41.440Z,0.80
2018-12-04T07:57:08.997Z,0.86
2018-12-04T07:59:36.513Z,0.76
2018-12-04T08:02:04.056Z,0.99
2018-12-04T08:04:31.588Z,1.18
2018-12-04T08:06:59.119Z,1.34
2018-12-04T08:09:26.641Z,1.46
2018-12-04T08:11:54.155Z,1.48
2018-12-04T08:14:21.664Z,1.54
2018-12-04T08:16:49.208Z,1.46
2018-12-04T08:19:17.068Z,1.57
2018-12-04T08:21:44.624Z,1.63
2018-12-04T08:24:12.192Z,1.68
2018-12-04T08:26:39.740Z,1.85
2018-12-04T08:29:07.274Z,1.99
2018-12-04T08:31:35.063Z,2.07
2018-12-04T08:34:02.598Z,2.15
2018-12-04T08:36:30.142Z,2.36
2018-12-04T08:38:57.656Z,2.50
2018-12-04T08:41:25.245Z,2.62
2018-12-04T08:43:52.852Z,2.40
2018-12-04T08:46:20.644Z,2.70
2018-12-04T08:48:48.164Z,2.73
2018-12-04T08:51:15.689Z,2.81
2018-12-04T08:53:43.204Z,2.84
2018-12-04T08:56:10.813Z,2.86
2018-12-04T08:58:38.360Z,2.86
2018-12-04T09:01:05.910Z,3.03
2018-12-04T09:03:33.444Z,3.15
2018-12-04T09:06:00.964Z,3.27
2018-12-04T09:08:28.872Z,3.45
2018-12-04T09:10:56.388Z,3.48
2018-12-04T09:13:23.902Z,3.56
2018-12-04T09:15:51.490Z,3.45
2018-12-04T09:18:19.035Z,3.38
2018-12-04T09:20:51.618Z,3.19
2018-12-04T09:23:19.407Z,3.06
2018-12-04T09:25:47.173Z,2.96
2018-12-04T09:28:14.713Z,2.69
2018-12-04T09:30:42.380Z,2.61
2018-12-04T09:33:10.189Z,2.54
2018-12-04T09:35:37.756Z,2.53
2018-12-04T09:38:05.303Z,2.26
2018-12-04T09:40:33.641Z,2.21
2018-12-04T09:43:04.132Z,2.37
2018-12-04T09:45:30.736Z,2.42
2018-12-04T09:47:58.273Z,2.51
2018-12-04T09:50:26.024Z,2.73
2018-12-04T09:52:53.552Z,2.94
2018-12-04T09:55:21.091Z,2.92
2018-12-04T09:57:48.694Z,2.93
2018-12-04T10:00:16.213Z,2.92
2018-12-04T10:02:43.812Z,3.06
2018-12-04T10:05:11.340Z,3.11
2018-12-04T10:07:38.864Z,3.21
2018-12-04T10:10:07.422Z,3.33
2018-12-04T10:12:35.823Z,3.55
2018-12-04T10:15:03.517Z,3.75
2018-12-04T10:17:31.108Z,3.97
2018-12-04T10:19:58.692Z,3.94
2018-12-04T10:22:26.247Z,4.10
2018-12-04T10:24:53.805Z,4.14
2018-12-04T10:27:21.336Z,4.26
2018-12-04T10:29:49.211Z,4.60
2018-12-04T10:32:16.794Z,4.75
2018-12-04T10:34:44.313Z,4.62
2018-12-04T10:37:11.855Z,4.76
2018-12-04T10:39:39.455Z,4.73
2018-12-04T10:42:06.984Z,4.65
2018-12-04T10:44:34.553Z,4.53
2018-12-04T10:47:02.675Z,4.31
2018-12-04T10:49:30.222Z,4.45
2018-12-04T10:51:57.799Z,4.69
2018-12-04T10:54:25.359Z,4.79
2018-12-04T10:56:52.938Z,4.68
2018-12-04T10:59:20.493Z,4.67
2018-12-04T11:01:53.440Z,4.43
2018-12-04T11:04:20.965Z,4.06
2018-12-04T11:06:48.585Z,3.92
2018-12-04T11:09:16.156Z,4.18
2018-12-04T11:11:43.678Z,4.32
2018-12-04T11:14:11.208Z,4.08
2018-12-04T11:16:38.738Z,4.29
2018-12-04T11:19:06.284Z,4.31
2018-12-04T11:21:33.813Z,4.34
2018-12-04T11:24:01.345Z,4.36
2018-12-04T11:26:29.734Z,4.43
2018-12-04T11:28:57.271Z,4.38
2018-12-04T11:31:24.814Z,4.41
2018-12-04T11:33:52.374Z,4.36
2018-12-04T11:36:20.139Z,4.32
2018-12-04T11:38:47.925Z,4.08
2018-12-04T11:41:15.966Z,4.02
2018-12-04T11:43:43.485Z,4.08
2018-12-04T11:46:11.028Z,4.08
2018-12-04T11:48:38.590Z,4.09
2018-12-04T11:51:06.330Z,3.98
2018-12-04T11:53:33.861Z,3.94
2018-12-04T11:56:01.398Z,4.10
2018-12-04T11:58:29.397Z,4.15
2018-12-04T12:00:57.100Z,4.35
2018-12-04T12:03:24.632Z,4.45
2018-12-04T12:05:52.285Z,4.54
2018-12-04T12:08:19.919Z,4.75
2018-12-04T12:10:47.477Z,4.82
2018-12-04T12:13:15.016Z,4.89
2018-12-04T12:15:42.600Z,4.96
2018-12-04T12:18:10.131Z,4.92
2018-12-04T12:20:38.036Z,4.92
2018-12-04T12:23:05.630Z,4.99
2018-12-04T12:25:33.180Z,5.02
2018-12-04T12:28:00.707Z,5.01
2018-12-04T12:30:28.272Z,5.00
2018-12-04T12:32:55.797Z,5.13
2018-12-04T12:35:23.329Z,5.01
2018-12-04T12:37:51.433Z,4.94
2018-12-04T12:40:18.965Z,4.89
2018-12-04T12:42:46.816Z,4.88
2018-12-04T12:45:14.473Z,4.89
2018-12-04T12:47:42.101Z,4.78
2018-12-04T12:50:09.796Z,4.68
2018-12-04T12:52:37.328Z,4.63
2018-12-04T12:55:05.824Z,4.60
2018-12-04T12:57:33.387Z,4.59
2018-12-04T13:00:00.945Z,4.56
2018-12-04T13:02:28.501Z,4.49
2018-12-04T13:04:56.070Z,4.32
2018-12-04T13:07:23.719Z,4.39
2018-12-04T13:09:51.486Z,4.32
2018-12-04T13:12:19.030Z,4.27
2018-12-04T13:14:46.569Z,4.10
2018-12-04T13:17:14.173Z,4.10
2018-12-04T13:19:41.748Z,4.06
2018-12-04T13:22:09.302Z,4.05
2018-12-04T13:24:36.851Z,3.90
2018-12-04T13:27:04.450Z,3.92
2018-12-04T13:29:32.152Z,3.91
2018-12-04T13:31:59.694Z,3.89
2018-12-04T13:34:27.541Z,3.85
2018-12-04T13:36:55.118Z,3.75
2018-12-04T13:39:22.684Z,3.59
2018-12-04T13:41:50.220Z,3.55
2018-12-04T13:44:17.771Z,3.41
2018-12-04T13:46:45.589Z,3.30
2018-12-04T13:49:13.129Z,3.28
2018-12-04T13:51:40.742Z,3.20
2018-12-04T13:54:08.320Z,3.13
2018-12-04T13:56:35.966Z,3.01
2018-12-04T13:59:03.635Z,2.93
2018-12-04T14:01:31.166Z,2.93
2018-12-04T14:03:58.720Z,2.91
2018-12-04T14:06:26.320Z,2.88
2018-12-04T14:08:53.865Z,2.75
2018-12-04T14:11:21.567Z,2.95
2018-12-04T14:13:49.100Z,3.08
2018-12-04T14:16:16.646Z,3.08
2018-12-04T14:18:44.511Z,3.02
2018-12-04T14:21:12.162Z,3.10
2018-12-04T14:23:39.818Z,3.36
2018-12-04T14:26:07.759Z,3.38
2018-12-04T14:28:35.446Z,3.27
2018-12-04T14:31:03.167Z,3.26
2018-12-04T14:33:30.708Z,3.18
2018-12-04T14:35:58.233Z,3.09
2018-12-04T14:38:25.971Z,2.98
2018-12-04T14:40:53.614Z,2.85
2018-12-04T14:43:21.173Z,2.78
2018-12-04T14:45:48.939Z,2.76
2018-12-04T14:48:16.504Z,2.76
2018-12-04T14:50:44.165Z,2.80
2018-12-04T14:53:11.768Z,2.77
2018-12-04T14:55:39.386Z,2.81
2018-12-04T14:58:07.084Z,2.72
2018-12-04T15:00:34.835Z,2.74
2018-12-04T15:03:02.570Z,2.81
2018-12-04T15:05:30.138Z,2.90
2018-12-04T15:07:57.816Z,2.91
2018-12-04T15:10:25.361Z,2.97
2018-12-04T15:12:53.142Z,3.00
2018-12-04T15:15:20.790Z,3.00
2018-12-04T15:17:48.356Z,2.99
2018-12-04T15:20:15.881Z,2.99
2018-12-04T15:22:43.629Z,2.96
2018-12-04T15:25:11.162Z,2.93
2018-12-04T15:27:38.807Z,2.89
2018-12-04T15:30:08.081Z,2.81
2018-12-04T15:32:35.675Z,2.87
2018-12-04T15:35:05.615Z,2.87
2018-12-04T15:37:33.337Z,2.83
2018-12-04T15:40:00.932Z,2.66
2018-12-04T15:42:28.583Z,2.58
2018-12-04T15:44:56.297Z,2.56
2018-12-04T15:47:23.942Z,2.58
2018-12-04T15:49:51.646Z,2.56
2018-12-04T15:52:19.562Z,2.39
2018-12-04T15:54:47.100Z,2.40
2018-12-04T15:57:14.701Z,2.32
2018-12-04T15:59:42.308Z,2.24
2018-12-04T16:02:09.848Z,2.36
2018-12-04T16:04:37.388Z,2.30
2018-12-04T16:07:04.912Z,2.32
2018-12-04T16:09:32.456Z,2.43
2018-12-04T16:11:59.984Z,2.53
2018-12-04T16:14:27.562Z,2.43
2018-12-04T16:16:55.129Z,2.46
2018-12-04T16:19:22.689Z,2.59
2018-12-04T16:21:50.254Z,2.50
2018-12-04T16:24:17.810Z,2.55
2018-12-04T16:26:45.478Z,2.71
2018-12-04T16:29:13.023Z,2.74
2018-12-04T16:31:40.837Z,2.78
2018-12-04T16:34:08.469Z,2.87
2018-12-04T16:36:36.026Z,2.76
2018-12-04T16:39:06.248Z,2.70
2018-12-04T16:41:33.805Z,2.76
2018-12-04T16:44:01.597Z,2.76
2018-12-04T16:46:29.153Z,2.69
2018-12-04T16:48:56.905Z,2.66
2018-12-04T16:51:24.670Z,2.75
2018-12-04T16:53:52.228Z,2.73
2018-12-04T16:56:19.894Z,2.72
2018-12-04T16:58:47.438Z,2.72
2018-12-04T17:01:14.977Z,2.78
2018-12-04T17:03:42.522Z,2.71
2018-12-04T17:06:10.075Z,2.57
2018-12-04T17:08:37.861Z,2.53
2018-12-04T17:11:05.409Z,2.58
2018-12-04T17:13:33.259Z,2.75
2018-12-04T17:16:00.807Z,2.80
2018-12-04T17:18:28.993Z,2.79
2018-12-04T17:20:56.570Z,2.86
2018-12-04T17:23:24.137Z,2.89
2018-12-04T17:25:52.100Z,2.85
2018-12-04T17:28:19.752Z,2.78
2018-12-04T17:30:47.417Z,2.73
2018-12-04T17:33:15.070Z,2.76
2018-12-04T17:35:42.612Z,2.73
2018-12-04T17:38:10.157Z,2.70
2018-12-04T17:40:37.688Z,2.63
2018-12-04T17:43:05.398Z,2.57
2018-12-04T17:45:32.929Z,2.70
2018-12-04T17:48:00.447Z,2.75
2018-12-04T17:50:28.410Z,2.79
2018-12-04T17:52:55.969Z,2.76
2018-12-04T17:55:23.517Z,2.71
2018-12-04T17:57:51.050Z,2.67
2018-12-04T18:00:18.611Z,2.77
2018-12-04T18:02:46.172Z,2.63
2018-12-04T18:05:13.712Z,2.61
2018-12-04T18:07:41.464Z,2.65
2018-12-04T18:10:09.096Z,2.71
2018-12-04T18:12:36.642Z,2.54
2018-12-04T18:15:05.044Z,2.61
2018-12-04T18:17:33.201Z,2.59
2018-12-04T18:20:01.124Z,2.60
2018-12-04T18:22:28.692Z,2.80
2018-12-04T18:24:56.228Z,2.85
2018-12-04T18:27:23.764Z,2.55
2018-12-04T18:29:51.305Z,2.58
2018-12-04T18:32:19.135Z,2.67
2018-12-04T18:34:46.685Z,2.53
2018-12-04T18:37:14.237Z,2.49
2018-12-04T18:39:41.781Z,2.66
2018-12-04T18:42:09.475Z,2.65
2018-12-04T18:44:37.042Z,2.70
2018-12-04T18:47:05.364Z,2.76
2018-12-04T18:49:32.927Z,2.86
2018-12-04T18:52:00.481Z,2.78
2018-12-04T18:54:28.499Z,2.74
2018-12-04T18:56:56.365Z,2.69
2018-12-04T18:59:23.974Z,2.65
2018-12-04T19:01:51.587Z,2.67
2018-12-04T19:04:19.201Z,2.68
2018-12-04T19:06:46.765Z,2.67
2018-12-04T19:09:14.367Z,2.67
2018-12-04T19:11:41.926Z,2.73
2018-12-04T19:14:09.532Z,2.64
2018-12-04T19:16:37.184Z,2.65
2018-12-04T19:19:04.819Z,2.63
2018-12-04T19:21:32.356Z,2.58
2018-12-04T19:24:00.348Z,2.64
2018-12-04T19:26:27.905Z,2.75
2018-12-04T19:28:55.425Z,3.00
2018-12-04T19:31:23.139Z,3.07
2018-12-04T19:33:50.765Z,3.08
2018-12-04T19:36:18.626Z,3.12
2018-12-04T19:38:46.228Z,3.06
2018-12-04T19:41:13.749Z,2.92
2018-12-04T19:43:41.330Z,2.78
2018-12-04T19:46:08.864Z,2.79
2018-12-04T19:48:36.392Z,2.78
2018-12-04T19:51:04.256Z,2.69
2018-12-04T19:53:31.804Z,2.70
2018-12-04T19:55:59.341Z,2.65
2018-12-04T19:58:26.873Z,2.55
2018-12-04T20:00:54.431Z,2.58
2018-12-04T20:03:22.153Z,2.56
2018-12-04T20:05:50.048Z,2.69
2018-12-04T20:08:17.599Z,2.67
2018-12-04T20:10:45.158Z,2.56
2018-12-04T20:13:12.826Z,2.46
2018-12-04T20:15:40.381Z,2.48
2018-12-04T20:18:07.975Z,2.49
2018-12-04T20:20:35.518Z,2.53
2018-12-04T20:23:03.057Z,2.72
2018-12-04T20:25:30.577Z,2.86
2018-12-04T20:27:58.162Z,2.81
2018-12-04T20:30:25.716Z,2.80
2018-12-04T20:32:59.668Z,2.76
2018-12-04T20:35:22.992Z,2.79
2018-12-04T20:37:50.551Z,2.85
2018-12-04T20:40:18.092Z,2.84
2018-12-04T20:42:45.638Z,2.85
2018-12-04T20:45:13.425Z,2.94
2018-12-04T20:47:41.327Z,2.96
2018-12-04T20:50:08.875Z,2.86
2018-12-04T20:52:36.468Z,2.79
2018-12-04T20:55:08.662Z,2.75
2018-12-04T20:57:34.143Z,2.74
2018-12-04T21:00:01.737Z,2.70
2018-12-04T21:02:30.872Z,2.65
2018-12-04T21:04:58.939Z,2.59
2018-12-04T21:07:26.475Z,2.54
2018-12-04T21:09:54.302Z,2.61
2018-12-04T21:12:21.831Z,2.55
2018-12-04T21:14:49.388Z,2.61
2018-12-04T21:17:17.855Z,2.61
2018-12-04T21:19:45.391Z,2.64
2018-12-04T21:22:13.373Z,2.69
2018-12-04T21:24:40.900Z,2.71
2018-12-04T21:27:11.864Z,2.70
2018-12-04T21:29:45.211Z,2.72
2018-12-04T21:32:18.426Z,2.72
2018-12-04T21:34:51.631Z,2.73
2018-12-04T21:37:24.737Z,2.77
2018-12-04T21:39:57.913Z,2.75
2018-12-04T21:42:31.064Z,2.67
2018-12-04T21:45:04.220Z,2.69
2018-12-04T21:47:37.417Z,2.82
2018-12-04T21:50:05.590Z,2.85
2018-12-04T21:52:33.217Z,2.75
2018-12-04T21:55:01.068Z,2.74
2018-12-04T21:57:28.609Z,2.77
2018-12-04T21:59:56.131Z,2.80
2018-12-04T22:02:23.663Z,2.74
2018-12-04T22:04:51.196Z,2.68
2018-12-04T22:07:19.100Z,2.74
2018-12-04T22:09:46.641Z,2.74
2018-12-04T22:12:14.817Z,2.74
2018-12-04T22:14:42.350Z,2.81
2018-12-04T22:17:10.496Z,2.84
2018-12-04T22:19:38.284Z,2.91
2018-12-04T22:22:05.845Z,2.96
2018-12-04T22:24:33.914Z,3.01
2018-12-04T22:27:01.446Z,3.01
2018-12-04T22:29:28.977Z,2.93
2018-12-04T22:31:56.527Z,2.87
2018-12-04T22:34:24.145Z,2.85
2018-12-04T22:36:51.681Z,2.80
2018-12-04T22:39:19.216Z,2.82
2018-12-04T22:41:46.741Z,2.86
2018-12-04T22:44:14.581Z,2.83
2018-12-04T22:46:42.125Z,2.88
2018-12-04T22:49:11.531Z,2.88
2018-12-04T22:51:39.183Z,2.88
2018-12-04T22:54:06.832Z,2.82
2018-12-04T22:56:35.847Z,2.92
2018-12-04T22:59:03.392Z,2.87
2018-12-04T23:01:38.174Z,2.93
2018-12-04T23:04:06.933Z,2.98
2018-12-04T23:06:35.655Z,3.15
2018-12-04T23:09:06.328Z,3.29
2018-12-04T23:11:34.185Z,3.34
2018-12-04T23:14:01.992Z,3.37
2018-12-04T23:16:29.517Z,3.32
2018-12-04T23:18:57.041Z,3.30
2018-12-04T23:21:24.685Z,3.26
2018-12-04T23:23:52.220Z,3.18
2018-12-04T23:26:20.033Z,3.11
2018-12-04T23:28:47.559Z,3.05
2018-12-04T23:31:15.098Z,3.02
2018-12-04T23:33:42.661Z,3.00
2018-12-04T23:36:10.312Z,3.02
2018-12-04T23:38:38.025Z,3.07
2018-12-04T23:41:05.544Z,3.08
2018-12-04T23:43:33.076Z,3.10
2018-12-04T23:46:00.620Z,3.10
2018-12-04T23:48:28.143Z,3.07
2018-12-04T23:50:56.229Z,3.07
2018-12-04T23:53:24.495Z,3.04
2018-12-04T23:55:52.025Z,2.99
2018-12-04T23:58:19.553Z,3.01
